Barksdale Air Force Base Bossier City US
ICAO: KBAD
IATA: BAD
Category: Large
Scheduled Services: No

Elevation: 166 ft
TransAlt. 18000 ft.

Airport Communications:
SHREVEPORT APP/DEP:119.9
ATIS:37.58
GND:121.8
PMSV METRO:37.362
COMD POST:31.1
PTD:37.22
TWR:128.25

KBAD Zoom In..

Runways:

(A) RW 15 length 11758 ft width 299 ft
ILS 108.90 / hdg 146

(B) RW 33 length 11758 ft width 299 ft
ILS 109.90 / hdg 326

Location; KBAD
Day. 23 / Time. 09.56 Zulu
* Altimeter: 29.84
* Temperature: 26° c. 78.8°f.
* Wind from: 000° Speed 00 kn.
Dewpoint: 19° c.
Visibility: 10 Statute Miles.
Clouds: Scattered 21000 ft.

KBAD 230956Z AUTO 00000KT 10SM SCT210 26/19 A2984 RMK AO2 SLP105 T02570191


Wind - Calm.

 
 
jpsmedia.com for Web Design worldairports.se 2018   terms of use